Time;durP1;ratioP1;P1;durP2;ratioP2;P2;SDS_P1;SDS_P2;PMS_P1;PMS_P2;Temp;Humidity;BMP_temperature;BMP_pressure;BME280_temperature;BME280_humidity;BME280_pressure;Samples;Min_cycle;Max_cycle;Signal;HPM_P1;HPM_P2
2023/09/01 00:01:11;;;;;;;2.17;1.97;;;12.30;99.90;;;;;;4963741;28;20178;-73
2023/09/01 00:03:36;;;;;;;2.67;1.60;;;12.30;99.90;;;;;;4953224;28;20699;-73
2023/09/01 00:06:02;;;;;;;2.50;1.80;;;12.30;99.90;;;;;;4951634;28;20178;-73
2023/09/01 00:08:28;;;;;;;2.97;1.87;;;12.30;99.90;;;;;;4955564;28;20663;-73
2023/09/01 00:10:54;;;;;;;2.17;1.60;;;12.30;99.90;;;;;;4948360;28;20273;-73
2023/09/01 00:13:20;;;;;;;2.07;1.83;;;12.20;99.90;;;;;;4947192;28;20509;-73
2023/09/01 00:15:45;;;;;;;1.83;1.70;;;12.20;99.90;;;;;;4957923;28;20321;-73
2023/09/01 00:18:11;;;;;;;4.23;2.07;;;12.10;99.90;;;;;;4957642;28;20193;-72
2023/09/01 00:20:36;;;;;;;1.70;1.60;;;12.10;99.90;;;;;;4953062;28;20188;-73
2023/09/01 00:23:06;;;;;;;3.50;2.00;;;12.10;99.90;;;;;;4956707;28;20556;-73
2023/09/01 00:25:31;;;;;;;1.90;1.80;;;12.10;99.90;;;;;;4951328;28;20212;-74
2023/09/01 00:27:57;;;;;;;2.20;2.00;;;12.10;99.90;;;;;;4957334;28;20476;-73
2023/09/01 00:30:23;;;;;;;2.23;1.57;;;12.00;99.90;;;;;;4949312;28;21387;-73
2023/09/01 00:32:48;;;;;;;4.50;1.90;;;12.10;99.90;;;;;;4958947;28;20178;-75
2023/09/01 00:35:14;;;;;;;2.83;2.60;;;12.00;99.90;;;;;;4960557;28;20203;-75
2023/09/01 00:37:39;;;;;;;1.77;1.67;;;11.90;99.90;;;;;;4964453;28;20182;-73
2023/09/01 00:40:06;;;;;;;2.60;2.27;;;11.90;99.90;;;;;;4965324;28;20527;-75
2023/09/01 00:42:32;;;;;;;2.70;1.90;;;12.00;99.90;;;;;;4967275;28;20629;-75
2023/09/01 00:44:57;;;;;;;2.43;1.83;;;11.90;99.90;;;;;;4958733;28;20870;-73
2023/09/01 00:47:23;;;;;;;3.10;2.37;;;11.90;99.90;;;;;;4961259;28;20192;-74
2023/09/01 00:49:49;;;;;;;2.07;1.73;;;12.00;99.90;;;;;;4961032;28;20208;-74
2023/09/01 00:52:15;;;;;;;2.47;2.27;;;11.80;99.90;;;;;;4954294;28;20170;-75
2023/09/01 00:54:40;;;;;;;3.40;2.47;;;11.90;99.90;;;;;;4961335;28;20449;-75
2023/09/01 00:57:06;;;;;;;3.53;2.43;;;11.90;99.90;;;;;;4959293;28;20182;-74
2023/09/01 00:59:32;;;;;;;2.57;2.07;;;11.90;99.90;;;;;;4962872;28;20185;-74
2023/09/01 01:02:01;;;;;;;3.27;2.50;;;12.00;99.90;;;;;;4954895;28;20717;-74
2023/09/01 01:04:27;;;;;;;2.73;2.10;;;11.80;99.90;;;;;;4963125;28;20940;-74
2023/09/01 01:07:01;;;;;;;2.47;2.27;;;11.90;99.90;;;;;;4954007;28;20433;-74
2023/09/01 01:09:40;;;;;;;3.50;2.23;;;11.90;99.90;;;;;;4961741;28;20504;-74
2023/09/01 01:12:16;;;;;;;2.53;2.33;;;11.90;99.90;;;;;;4959933;28;20428;-74
2023/09/01 01:14:47;;;;;;;2.13;1.90;;;11.80;99.90;;;;;;4961112;28;20441;-76
2023/09/01 01:17:15;;;;;;;2.67;2.40;;;11.70;99.90;;;;;;4957436;28;20459;-74
2023/09/01 01:19:54;;;;;;;3.13;2.13;;;11.70;99.90;;;;;;4951812;28;20425;-74
2023/09/01 01:22:41;;;;;;;3.10;2.47;;;11.70;99.90;;;;;;4956714;28;20433;-75
2023/09/01 01:25:11;;;;;;;2.30;2.00;;;11.70;99.90;;;;;;4955106;28;20450;-75
2023/09/01 01:27:42;;;;;;;2.60;2.40;;;11.70;99.90;;;;;;4956161;28;20422;-75
2023/09/01 01:30:09;;;;;;;2.70;2.03;;;11.70;99.90;;;;;;4955080;28;20413;-75
2023/09/01 01:32:36;;;;;;;4.97;2.53;;;11.70;99.90;;;;;;4953792;28;20721;-75
2023/09/01 01:35:21;;;;;;;3.20;2.30;;;11.70;99.90;;;;;;4951195;28;20453;-74
2023/09/01 01:38:18;;;;;;;2.93;2.73;;;11.70;99.90;;;;;;4951470;28;20445;-75
2023/09/01 01:40:47;;;;;;;3.60;2.70;;;11.70;99.90;;;;;;4981627;28;20459;-75
2023/09/01 01:43:22;;;;;;;2.77;2.57;;;11.70;99.90;;;;;;4977565;28;20578;-75
2023/09/01 01:45:48;;;;;;;5.97;2.47;;;11.70;99.90;;;;;;4976620;28;20793;-75
2023/09/01 01:48:14;;;;;;;2.53;2.33;;;11.70;99.90;;;;;;4979864;28;20460;-74
2023/09/01 01:50:41;;;;;;;3.80;2.30;;;11.70;99.90;;;;;;4979265;28;20444;-74
2023/09/01 01:53:07;;;;;;;3.70;3.30;;;11.60;99.90;;;;;;4966379;28;20178;-75
2023/09/01 01:55:35;;;;;;;3.13;2.83;;;11.60;99.90;;;;;;4947082;29;20452;-74
2023/09/01 01:58:01;;;;;;;3.20;2.80;;;11.60;99.90;;;;;;4958032;28;20653;-73
2023/09/01 02:00:27;;;;;;;4.10;2.63;;;11.70;99.90;;;;;;4957517;28;20497;-73
2023/09/01 02:02:54;;;;;;;3.63;3.13;;;11.70;99.90;;;;;;4957828;28;20178;-74
2023/09/01 02:05:19;;;;;;;3.77;3.10;;;11.70;99.90;;;;;;4957270;28;20473;-75
2023/09/01 02:07:45;;;;;;;2.53;2.33;;;11.60;99.90;;;;;;4956441;28;20518;-72
2023/09/01 02:10:11;;;;;;;2.80;2.50;;;11.50;99.90;;;;;;4956864;28;20589;-74
2023/09/01 02:12:36;;;;;;;3.30;2.70;;;11.50;99.90;;;;;;4953486;28;20189;-74
2023/09/01 02:15:03;;;;;;;4.23;2.63;;;11.60;99.90;;;;;;4962595;28;20604;-72
2023/09/01 02:17:29;;;;;;;3.50;2.73;;;11.50;99.90;;;;;;4976763;28;20177;-74
2023/09/01 02:19:56;;;;;;;4.23;3.27;;;11.60;99.90;;;;;;4974878;28;20429;-74
2023/09/01 02:22:22;;;;;;;6.30;2.80;;;11.50;99.90;;;;;;4976278;28;20417;-74
2023/09/01 02:24:48;;;;;;;6.50;2.43;;;11.50;99.90;;;;;;4975709;28;20824;-74
2023/09/01 02:27:14;;;;;;;3.43;3.13;;;11.50;99.90;;;;;;4963341;28;20420;-74
2023/09/01 02:29:39;;;;;;;4.77;3.30;;;11.60;99.90;;;;;;4955553;28;20208;-74
2023/09/01 02:32:06;;;;;;;3.67;2.97;;;11.50;99.90;;;;;;4957125;28;20629;-74
2023/09/01 02:34:32;;;;;;;5.07;3.40;;;11.40;99.90;;;;;;4957138;28;20225;-74
2023/09/01 02:36:58;;;;;;;3.77;3.20;;;11.50;99.90;;;;;;4957612;28;20505;-75
2023/09/01 02:39:24;;;;;;;3.57;3.30;;;11.60;99.90;;;;;;4957583;28;20410;-75
2023/09/01 02:41:49;;;;;;;3.20;3.00;;;11.50;99.90;;;;;;4958060;28;20417;-75
2023/09/01 02:44:15;;;;;;;3.67;3.37;;;11.40;99.90;;;;;;4946057;28;20240;-74
2023/09/01 02:46:40;;;;;;;4.33;3.33;;;11.40;99.90;;;;;;4956950;28;20185;-75
2023/09/01 02:49:06;;;;;;;3.53;3.23;;;11.40;99.90;;;;;;4977181;23;20645;-72
2023/09/01 02:51:31;;;;;;;3.17;2.67;;;11.40;99.90;;;;;;4951543;28;20189;-70
2023/09/01 02:53:58;;;;;;;4.27;3.03;;;11.30;99.90;;;;;;4954491;28;20170;-70
2023/09/01 02:56:23;;;;;;;3.40;3.10;;;11.30;99.90;;;;;;4960690;28;20189;-71
2023/09/01 02:58:49;;;;;;;3.40;3.03;;;11.30;99.90;;;;;;4954242;28;20440;-70
2023/09/01 03:01:14;;;;;;;5.40;3.43;;;11.30;99.90;;;;;;4952123;28;20236;-69
2023/09/01 03:03:41;;;;;;;12.20;3.60;;;11.30;99.90;;;;;;4954160;28;20174;-70
2023/09/01 03:06:08;;;;;;;3.33;3.03;;;11.30;99.90;;;;;;4954191;28;20182;-70
2023/09/01 03:08:34;;;;;;;4.17;3.40;;;11.30;99.90;;;;;;4940568;28;20714;-69
2023/09/01 03:11:00;;;;;;;4.47;3.90;;;11.30;99.90;;;;;;4944872;28;20975;-70
2023/09/01 03:13:26;;;;;;;3.57;3.27;;;11.20;99.90;;;;;;4934519;29;20413;-69
2023/09/01 03:15:55;;;;;;;3.57;2.90;;;11.20;99.90;;;;;;4936090;29;20778;-71
2023/09/01 03:18:21;;;;;;;3.37;3.07;;;11.20;99.90;;;;;;4942150;28;20856;-70
2023/09/01 03:20:47;;;;;;;4.87;3.90;;;11.20;99.90;;;;;;4934524;29;20518;-70
2023/09/01 03:23:13;;;;;;;4.50;3.13;;;11.30;99.90;;;;;;4934519;29;20414;-70
2023/09/01 03:25:39;;;;;;;3.53;3.00;;;11.30;99.90;;;;;;4934457;29;20515;-70
2023/09/01 03:28:04;;;;;;;5.33;3.23;;;11.30;99.90;;;;;;4949498;28;20240;-71
2023/09/01 03:30:30;;;;;;;5.40;3.87;;;11.20;99.90;;;;;;4953603;28;20194;-70
2023/09/01 03:32:56;;;;;;;4.77;4.03;;;11.20;99.90;;;;;;4943788;28;20207;-70
2023/09/01 03:35:21;;;;;;;3.97;3.23;;;11.10;99.90;;;;;;4953618;28;20166;-70
2023/09/01 03:37:47;;;;;;;5.70;3.93;;;11.00;99.90;;;;;;4953174;28;20261;-69
2023/09/01 03:40:12;;;;;;;5.03;4.53;;;11.00;99.90;;;;;;4953156;28;20198;-70
2023/09/01 03:42:39;;;;;;;4.00;3.60;;;11.00;99.90;;;;;;4953412;28;20166;-70
2023/09/01 03:45:05;;;;;;;3.40;3.10;;;10.90;99.90;;;;;;4951839;28;20749;-71
2023/09/01 03:47:31;;;;;;;4.30;3.90;;;10.90;99.90;;;;;;4950030;28;20419;-71
2023/09/01 03:49:57;;;;;;;4.00;3.70;;;11.00;99.90;;;;;;4933958;29;20826;-70
2023/09/01 03:52:22;;;;;;;6.03;4.53;;;10.90;99.90;;;;;;4934998;29;20171;-70
2023/09/01 03:54:48;;;;;;;3.57;3.27;;;10.90;99.90;;;;;;4953040;28;20181;-69
2023/09/01 03:57:15;;;;;;;5.67;4.10;;;10.90;99.90;;;;;;4952299;28;20645;-69
2023/09/01 03:59:42;;;;;;;4.87;4.07;;;10.90;99.90;;;;;;4946528;28;20453;-69
2023/09/01 04:02:08;;;;;;;4.10;3.57;;;11.00;99.90;;;;;;4952974;28;20501;-69
2023/09/01 04:04:33;;;;;;;5.00;3.77;;;11.00;99.90;;;;;;4953463;28;20406;-71
2023/09/01 04:06:59;;;;;;;3.80;3.50;;;11.00;99.90;;;;;;4953339;28;20178;-70
2023/09/01 04:09:25;;;;;;;4.83;4.27;;;11.00;99.90;;;;;;4949209;28;20217;-70
2023/09/01 04:11:50;;;;;;;7.40;4.07;;;10.90;99.90;;;;;;4952902;28;20181;-70
2023/09/01 04:14:16;;;;;;;7.13;5.43;;;10.90;99.90;;;;;;4953038;28;20201;-71
2023/09/01 04:16:41;;;;;;;8.70;4.10;;;10.90;99.90;;;;;;4951497;28;20186;-70
2023/09/01 04:19:07;;;;;;;4.40;4.00;;;10.90;99.90;;;;;;4934926;28;20203;-70
2023/09/01 04:21:33;;;;;;;5.03;4.23;;;11.00;99.90;;;;;;4933885;29;20171;-71
2023/09/01 04:23:58;;;;;;;5.60;4.20;;;10.90;99.90;;;;;;4946700;28;20186;-72
2023/09/01 04:26:24;;;;;;;4.70;4.23;;;10.90;99.90;;;;;;4944025;29;20185;-72
2023/09/01 04:28:50;;;;;;;7.13;4.13;;;11.00;99.90;;;;;;4952663;28;20205;-71
2023/09/01 04:31:21;;;;;;;4.87;4.33;;;10.90;99.90;;;;;;4951380;28;20426;-70
2023/09/01 04:33:47;;;;;;;7.17;4.67;;;10.90;99.90;;;;;;4939774;28;20235;-70
2023/09/01 04:36:12;;;;;;;5.00;4.50;;;10.90;99.90;;;;;;4934786;28;20422;-70
2023/09/01 04:38:38;;;;;;;5.27;4.60;;;10.90;99.90;;;;;;4939000;28;20653;-71
2023/09/01 04:41:04;;;;;;;4.80;4.40;;;10.90;99.90;;;;;;4959514;28;20465;-70
2023/09/01 04:43:29;;;;;;;6.03;5.30;;;10.90;99.90;;;;;;4953104;28;20175;-70
2023/09/01 04:45:57;;;;;;;7.23;4.70;;;10.90;99.90;;;;;;4952369;28;20188;-70
2023/09/01 04:48:24;;;;;;;5.57;5.07;;;10.90;99.90;;;;;;4953050;28;20433;-70
2023/09/01 04:50:49;;;;;;;6.00;5.40;;;11.00;99.90;;;;;;4949416;29;20533;-71
2023/09/01 04:53:15;;;;;;;9.00;4.67;;;11.00;99.90;;;;;;4952741;28;20501;-72
2023/09/01 04:55:42;;;;;;;5.80;4.30;;;11.00;99.90;;;;;;4951953;29;20181;-70
2023/09/01 04:58:07;;;;;;;4.57;4.17;;;11.00;99.90;;;;;;4952884;28;20762;-71
2023/09/01 05:00:34;;;;;;;7.50;4.50;;;11.00;99.90;;;;;;4942052;28;20454;-70
2023/09/01 05:03:00;;;;;;;4.77;4.33;;;11.10;99.90;;;;;;4933579;29;20171;-69
2023/09/01 05:05:26;;;;;;;4.20;3.80;;;11.10;99.90;;;;;;4944541;29;20484;-70
2023/09/01 05:07:52;;;;;;;7.13;4.80;;;11.20;99.90;;;;;;4952652;28;20405;-70
2023/09/01 05:10:17;;;;;;;8.70;5.20;;;11.20;99.90;;;;;;4953185;28;20253;-71
2023/09/01 05:12:43;;;;;;;5.80;4.77;;;11.20;99.90;;;;;;4956317;28;20182;-70
2023/09/01 05:15:09;;;;;;;6.37;5.17;;;11.20;99.90;;;;;;4947524;28;20186;-70
2023/09/01 05:17:34;;;;;;;5.23;4.77;;;11.30;99.90;;;;;;4935652;29;20187;-69
2023/09/01 05:20:00;;;;;;;4.70;4.30;;;11.30;99.90;;;;;;4936962;29;20476;-71
2023/09/01 05:22:26;;;;;;;7.10;4.50;;;11.30;99.90;;;;;;4937104;29;20686;-71
2023/09/01 05:24:53;;;;;;;4.73;4.33;;;11.40;99.90;;;;;;4937193;29;20281;-70
2023/09/01 05:27:19;;;;;;;6.17;5.17;;;11.40;99.90;;;;;;4937176;29;20186;-70
2023/09/01 05:29:49;;;;;;;3.77;3.47;;;11.50;99.90;;;;;;4958412;28;20481;-71
2023/09/01 05:32:19;;;;;;;4.33;3.90;;;11.60;99.90;;;;;;4956257;28;20406;-71
2023/09/01 05:34:45;;;;;;;4.53;4.13;;;11.70;99.90;;;;;;4949984;28;20505;-71
2023/09/01 05:37:14;;;;;;;4.40;4.00;;;11.70;99.90;;;;;;4936709;29;20515;-70
2023/09/01 05:39:40;;;;;;;4.97;3.97;;;11.80;99.90;;;;;;4936577;29;20198;-70
2023/09/01 05:42:07;;;;;;;8.67;3.90;;;11.90;99.90;;;;;;4949035;29;20425;-70
2023/09/01 05:44:33;;;;;;;4.57;4.17;;;12.00;99.90;;;;;;4955732;28;20508;-70
2023/09/01 05:46:59;;;;;;;6.93;3.73;;;12.20;99.90;;;;;;4954873;28;20420;-72
2023/09/01 05:49:25;;;;;;;4.93;3.33;;;12.70;99.90;;;;;;4974608;28;20464;-71
2023/09/01 05:51:51;;;;;;;6.57;3.00;;;13.00;99.90;;;;;;4974968;28;20166;-69
2023/09/01 05:54:20;;;;;;;3.83;2.93;;;13.30;99.90;;;;;;4973498;28;20175;-71
2023/09/01 05:56:46;;;;;;;2.70;2.40;;;13.60;99.90;;;;;;4951409;28;20493;-70
2023/09/01 05:59:12;;;;;;;2.50;2.30;;;13.90;99.90;;;;;;4941487;28;20430;-70
2023/09/01 06:01:38;;;;;;;2.60;2.40;;;14.10;99.90;;;;;;4944259;28;20785;-70
2023/09/01 06:04:04;;;;;;;2.57;2.37;;;14.20;99.90;;;;;;4946539;28;20185;-71
2023/09/01 06:06:33;;;;;;;2.60;2.40;;;14.50;99.90;;;;;;4951521;28;20192;-70
2023/09/01 06:08:59;;;;;;;5.10;2.20;;;15.00;99.90;;;;;;4945012;28;20521;-69
2023/09/01 06:11:26;;;;;;;3.20;2.30;;;15.50;99.90;;;;;;4946490;28;20572;-69
2023/09/01 06:13:51;;;;;;;2.23;2.00;;;15.70;99.90;;;;;;4952886;28;20412;-70
2023/09/01 06:16:17;;;;;;;3.13;2.40;;;16.40;99.90;;;;;;4940672;28;20456;-70
2023/09/01 06:18:43;;;;;;;2.70;2.30;;;16.80;99.90;;;;;;4935451;29;20181;-71
2023/09/01 06:21:10;;;;;;;5.17;2.63;;;16.60;99.90;;;;;;4935939;29;20942;-70
2023/09/01 06:23:40;;;;;;;3.83;2.30;;;17.30;99.90;;;;;;4939090;29;20413;-70
2023/09/01 06:26:06;;;;;;;3.30;2.30;;;17.70;99.90;;;;;;4951264;28;20440;-71
2023/09/01 06:28:32;;;;;;;3.03;2.40;;;17.50;99.90;;;;;;4947359;28;20463;-70
2023/09/01 06:30:58;;;;;;;4.17;2.10;;;17.30;99.90;;;;;;4953069;28;20197;-72
2023/09/01 06:33:23;;;;;;;3.50;2.13;;;17.20;99.90;;;;;;4940495;28;20867;-72
2023/09/01 06:35:49;;;;;;;3.77;2.40;;;17.80;99.90;;;;;;4937434;28;20255;-70
2023/09/01 06:38:15;;;;;;;4.83;2.90;;;17.40;99.90;;;;;;4951979;28;20245;-71
2023/09/01 06:40:40;;;;;;;3.03;2.37;;;17.60;99.90;;;;;;4941362;28;20621;-71
2023/09/01 06:43:06;;;;;;;3.87;2.47;;;17.70;99.90;;;;;;4951965;28;20203;-71
2023/09/01 06:45:32;;;;;;;5.53;3.03;;;18.20;99.90;;;;;;4942845;28;20181;-70
2023/09/01 06:47:58;;;;;;;2.90;2.10;;;19.00;99.90;;;;;;4949976;28;20178;-71
2023/09/01 06:50:24;;;;;;;4.00;2.27;;;18.00;99.90;;;;;;4940950;28;20824;-71
2023/09/01 06:52:50;;;;;;;3.63;2.23;;;18.80;99.90;;;;;;4935196;29;20738;-72
2023/09/01 06:55:16;;;;;;;2.70;2.10;;;19.30;99.90;;;;;;4935958;29;20167;-72
2023/09/01 06:57:42;;;;;;;2.90;2.20;;;19.20;99.90;;;;;;4940577;28;20432;-72
2023/09/01 07:00:09;;;;;;;6.20;2.70;;;19.00;99.90;;;;;;4933453;29;20426;-71
2023/09/01 07:02:35;;;;;;;3.93;2.50;;;19.10;99.90;;;;;;4949790;29;20172;-71
2023/09/01 07:05:02;;;;;;;4.17;3.00;;;19.20;99.90;;;;;;4951150;28;20939;-71
2023/09/01 07:07:27;;;;;;;2.50;2.27;;;19.80;99.90;;;;;;4951602;28;20169;-73
2023/09/01 07:09:53;;;;;;;6.90;2.40;;;20.20;99.90;;;;;;4944844;28;20467;-72
2023/09/01 07:12:19;;;;;;;2.03;1.80;;;19.50;99.90;;;;;;4938867;29;20160;-71
2023/09/01 07:14:44;;;;;;;3.03;2.50;;;19.50;99.90;;;;;;4937053;29;20185;-71
2023/09/01 07:17:11;;;;;;;3.43;2.90;;;19.60;99.90;;;;;;4949283;28;20184;-71
2023/09/01 07:19:37;;;;;;;3.70;2.40;;;19.30;99.90;;;;;;4944350;28;20185;-72
2023/09/01 07:22:03;;;;;;;4.50;2.67;;;20.30;99.90;;;;;;4951986;28;20425;-72
2023/09/01 07:24:28;;;;;;;3.67;2.90;;;20.20;99.90;;;;;;4951993;28;20276;-70
2023/09/01 07:26:54;;;;;;;2.90;2.40;;;20.60;99.90;;;;;;4952154;28;20534;-70
2023/09/01 07:29:20;;;;;;;4.50;3.13;;;21.50;99.90;;;;;;4943318;28;20623;-72
2023/09/01 07:31:45;;;;;;;4.00;2.50;;;21.60;99.90;;;;;;4951685;28;20598;-71
2023/09/01 07:34:11;;;;;;;2.30;2.00;;;21.10;99.90;;;;;;4948009;28;20178;-70
2023/09/01 07:36:36;;;;;;;2.90;2.20;;;21.00;99.90;;;;;;4939726;28;20174;-71
2023/09/01 07:39:02;;;;;;;3.97;2.10;;;20.30;99.90;;;;;;4937957;28;20206;-72
2023/09/01 07:41:28;;;;;;;3.13;2.53;;;21.50;99.90;;;;;;4944211;28;20189;-70
2023/09/01 07:43:53;;;;;;;3.00;2.70;;;21.90;99.90;;;;;;4933889;28;20196;-70
2023/09/01 07:46:19;;;;;;;3.03;1.97;;;21.50;99.90;;;;;;4939156;28;20241;-71
2023/09/01 07:48:45;;;;;;;3.10;2.10;;;21.70;99.90;;;;;;4942941;28;20221;-71
2023/09/01 07:51:10;;;;;;;8.00;7.00;;;21.80;99.90;;;;;;4933542;29;20220;-71
2023/09/01 07:53:36;;;;;;;2.43;2.03;;;21.20;99.90;;;;;;4939326;28;20190;-70
2023/09/01 07:56:02;;;;;;;3.80;2.13;;;22.20;99.90;;;;;;4933528;29;20174;-70
2023/09/01 07:58:28;;;;;;;3.23;2.07;;;21.50;99.90;;;;;;4942463;29;20542;-70
2023/09/01 08:00:54;;;;;;;6.97;1.80;;;21.60;99.90;;;;;;4933356;29;20434;-72
2023/09/01 08:03:19;;;;;;;4.50;2.80;;;22.00;99.90;;;;;;4933637;29;20174;-70
2023/09/01 08:05:45;;;;;;;3.40;2.00;;;22.00;99.90;;;;;;4933232;29;20175;-72
2023/09/01 08:08:13;;;;;;;2.60;2.30;;;22.60;99.90;;;;;;4942356;29;20287;-70
2023/09/01 08:10:39;;;;;;;4.27;2.27;;;22.80;99.90;;;;;;4951249;28;20215;-73
2023/09/01 08:13:05;;;;;;;5.17;4.27;;;22.00;99.90;;;;;;4955549;28;20425;-71
2023/09/01 08:15:32;;;;;;;2.53;2.30;;;22.20;99.90;;;;;;4958432;28;20170;-73
2023/09/01 08:17:58;;;;;;;5.43;2.40;;;22.80;99.90;;;;;;4952191;28;20432;-71
2023/09/01 08:20:24;;;;;;;6.93;2.50;;;23.30;99.90;;;;;;4947335;29;20437;-71
2023/09/01 08:22:49;;;;;;;4.07;2.80;;;23.10;99.90;;;;;;4952504;28;20908;-71
2023/09/01 08:25:15;;;;;;;3.00;2.40;;;22.80;99.90;;;;;;4952243;28;20280;-69
2023/09/01 08:27:41;;;;;;;8.80;3.63;;;21.50;99.90;;;;;;4952924;28;20217;-71
2023/09/01 08:30:07;;;;;;;2.80;2.10;;;21.30;99.90;;;;;;4953051;28;20205;-71
2023/09/01 08:32:33;;;;;;;17.37;12.67;;;21.10;99.90;;;;;;4952765;28;20162;-70
2023/09/01 08:35:02;;;;;;;4.83;2.90;;;22.60;99.90;;;;;;4961230;28;20411;-72
2023/09/01 08:37:27;;;;;;;4.97;2.77;;;23.90;99.90;;;;;;4972468;28;20895;-73
2023/09/01 08:39:53;;;;;;;8.63;5.00;;;24.40;99.90;;;;;;4971634;28;20432;-71
2023/09/01 08:42:21;;;;;;;5.60;3.47;;;23.50;99.90;;;;;;4972288;28;20180;-72
2023/09/01 08:44:49;;;;;;;2.53;2.33;;;23.10;99.90;;;;;;4965272;28;20186;-71
2023/09/01 08:47:22;;;;;;;9.03;3.10;;;23.20;99.90;;;;;;4965337;28;20450;-71
2023/09/01 08:49:50;;;;;;;7.93;4.67;;;23.20;99.90;;;;;;4956729;28;20465;-74
2023/09/01 08:52:19;;;;;;;3.53;2.67;;;23.50;99.90;;;;;;4955640;28;20406;-71
2023/09/01 08:54:48;;;;;;;2.70;2.50;;;24.00;99.90;;;;;;4957347;28;20506;-71
2023/09/01 08:57:13;;;;;;;2.90;2.60;;;22.70;99.90;;;;;;4957741;28;20420;-72
2023/09/01 08:59:39;;;;;;;2.37;2.07;;;22.60;99.90;;;;;;4945214;28;20797;-71
2023/09/01 09:02:05;;;;;;;4.13;2.20;;;23.20;99.90;;;;;;4937658;29;20183;-72
2023/09/01 09:04:31;;;;;;;4.60;3.10;;;23.70;99.90;;;;;;4937369;29;20178;-70
2023/09/01 09:07:15;;;;;;;4.60;1.93;;;23.50;99.90;;;;;;4937297;29;20414;-70
2023/09/01 09:09:52;;;;;;;8.13;5.90;;;23.10;99.90;;;;;;4944201;28;20652;-72
2023/09/01 09:12:19;;;;;;;2.73;2.13;;;22.80;99.90;;;;;;4952784;28;20406;-72
2023/09/01 09:14:51;;;;;;;4.83;1.40;;;22.70;99.90;;;;;;4950730;28;20422;-70
2023/09/01 09:17:17;;;;;;;4.50;3.13;;;23.00;99.90;;;;;;4954973;28;20460;-71
2023/09/01 09:19:53;;;;;;;2.57;2.10;;;22.60;99.90;;;;;;4953118;28;20482;-71
2023/09/01 09:22:20;;;;;;;2.50;1.50;;;23.20;99.90;;;;;;4948247;28;20413;-71
2023/09/01 09:24:46;;;;;;;2.50;1.77;;;22.40;99.90;;;;;;4944546;28;20513;-72
2023/09/01 09:27:16;;;;;;;3.50;1.53;;;21.90;99.90;;;;;;4949083;29;20565;-73
2023/09/01 09:29:42;;;;;;;16.83;13.73;;;22.30;99.90;;;;;;4957259;28;20541;-72
2023/09/01 09:32:24;;;;;;;2.80;1.40;;;22.40;99.90;;;;;;4949678;28;20936;-74
2023/09/01 09:35:10;;;;;;;15.63;12.63;;;23.00;99.90;;;;;;4938897;29;20936;-73
2023/09/01 09:37:38;;;;;;;4.00;2.20;;;22.60;99.90;;;;;;4951401;28;21572;-73
2023/09/01 09:40:10;;;;;;;4.53;1.43;;;22.00;99.90;;;;;;4945837;28;20447;-73
2023/09/01 09:42:41;;;;;;;5.90;3.47;;;21.40;99.90;;;;;;4941688;28;20441;-71
2023/09/01 09:45:23;;;;;;;2.30;1.37;;;21.80;99.90;;;;;;4940740;28;20491;-73
2023/09/01 09:47:49;;;;;;;5.33;4.30;;;22.40;99.90;;;;;;4936009;29;20406;-73
2023/09/01 09:50:17;;;;;;;3.23;1.83;;;21.70;99.90;;;;;;4954063;28;20548;-73
2023/09/01 09:52:47;;;;;;;4.83;3.67;;;22.10;99.90;;;;;;4955822;28;20507;-74
2023/09/01 09:55:19;;;;;;;1.90;1.53;;;22.60;99.90;;;;;;4991370;23;20492;-71
2023/09/01 09:57:48;;;;;;;2.67;2.20;;;21.90;99.90;;;;;;4970966;28;20831;-71
2023/09/01 10:00:14;;;;;;;5.33;4.30;;;21.60;99.90;;;;;;4974931;28;20777;-70
2023/09/01 10:02:46;;;;;;;3.40;2.47;;;21.90;99.90;;;;;;4974734;28;20423;-71
2023/09/01 10:05:15;;;;;;;3.67;2.17;;;21.90;99.90;;;;;;4974434;28;20928;-70
2023/09/01 10:07:42;;;;;;;8.83;7.90;;;21.80;99.90;;;;;;4974422;28;20424;-72
2023/09/01 10:10:09;;;;;;;3.90;2.33;;;22.00;99.90;;;;;;4974313;28;20599;-69
2023/09/01 10:12:35;;;;;;;8.37;6.13;;;21.70;99.90;;;;;;4972932;28;20411;-68
2023/09/01 10:15:04;;;;;;;7.80;3.17;;;21.90;99.90;;;;;;4973986;28;20446;-70
2023/09/01 10:17:32;;;;;;;5.00;2.30;;;22.00;99.90;;;;;;4968757;28;20478;-73
2023/09/01 10:20:06;;;;;;;4.87;2.70;;;21.30;99.90;;;;;;4965060;28;20947;-68
2023/09/01 10:22:31;;;;;;;4.60;2.10;;;21.60;99.90;;;;;;4954741;28;20421;-73
2023/09/01 10:25:11;;;;;;;3.67;2.07;;;21.10;99.90;;;;;;4954896;29;20796;-72
2023/09/01 10:27:37;;;;;;;2.23;1.40;;;21.60;99.90;;;;;;4955117;28;20174;-72
2023/09/01 10:30:25;;;;;;;2.57;1.77;;;21.70;99.90;;;;;;4962159;28;20472;-72
2023/09/01 10:33:01;;;;;;;4.77;1.93;;;21.60;99.90;;;;;;4974562;28;20491;-72
2023/09/01 10:35:47;;;;;;;2.47;1.73;;;21.50;99.90;;;;;;4973033;28;20431;-72
2023/09/01 10:38:22;;;;;;;3.30;1.83;;;20.90;99.90;;;;;;4971269;28;21055;-73
2023/09/01 10:40:51;;;;;;;2.70;2.40;;;20.30;99.90;;;;;;4974261;28;20415;-72
2023/09/01 10:43:35;;;;;;;3.63;1.93;;;20.90;99.90;;;;;;4974713;28;20404;-72
2023/09/01 10:46:16;;;;;;;2.17;1.97;;;21.00;99.90;;;;;;4974317;28;20401;-72
2023/09/01 10:48:48;;;;;;;3.83;1.70;;;21.10;99.90;;;;;;4954579;28;20485;-73
2023/09/01 10:51:16;;;;;;;2.33;1.87;;;21.00;99.90;;;;;;4954842;28;20409;-71
2023/09/01 10:53:42;;;;;;;2.33;1.73;;;20.60;99.90;;;;;;4958178;28;20847;-71
2023/09/01 10:56:12;;;;;;;2.80;1.87;;;20.50;99.90;;;;;;4974042;28;20504;-72
2023/09/01 10:58:47;;;;;;;1.70;1.60;;;20.80;99.90;;;;;;4974379;28;20268;-73
2023/09/01 11:01:33;;;;;;;3.03;2.20;;;20.80;99.90;;;;;;4956997;28;20435;-73
2023/09/01 11:04:14;;;;;;;6.23;2.00;;;21.10;99.90;;;;;;4969944;28;20441;-72
2023/09/01 11:06:58;;;;;;;3.33;1.93;;;21.40;99.90;;;;;;4966959;28;20501;-73
2023/09/01 11:09:43;;;;;;;4.37;2.00;;;21.30;99.90;;;;;;4973221;28;20452;-72
2023/09/01 11:12:11;;;;;;;3.60;1.77;;;20.80;99.90;;;;;;4964981;28;20428;-72
2023/09/01 11:14:59;;;;;;;2.90;2.10;;;21.00;99.90;;;;;;4970131;28;20501;-73
2023/09/01 11:17:54;;;;;;;3.73;1.93;;;21.40;99.90;;;;;;4973543;28;20942;-72
2023/09/01 11:20:29;;;;;;;4.07;1.97;;;21.50;99.90;;;;;;4964233;28;20436;-72
2023/09/01 11:22:59;;;;;;;2.80;2.00;;;21.40;99.90;;;;;;4973731;28;20547;-72
2023/09/01 11:25:27;;;;;;;3.33;1.67;;;21.40;99.90;;;;;;4973124;28;20472;-73
2023/09/01 11:27:52;;;;;;;2.77;1.90;;;20.70;99.90;;;;;;4973641;28;20503;-73
2023/09/01 11:30:19;;;;;;;5.00;2.00;;;21.00;99.90;;;;;;4973700;28;20333;-72
2023/09/01 11:32:48;;;;;;;5.73;2.17;;;20.90;99.90;;;;;;4973945;28;20212;-72
2023/09/01 11:35:28;;;;;;;3.00;2.50;;;21.00;99.90;;;;;;4963886;28;20469;-70
2023/09/01 11:37:56;;;;;;;4.60;2.00;;;21.10;99.90;;;;;;4962638;28;20475;-73
2023/09/01 11:40:24;;;;;;;2.30;2.10;;;21.60;99.90;;;;;;4974284;28;20443;-72
2023/09/01 11:42:50;;;;;;;2.63;1.80;;;21.40;99.90;;;;;;4974247;28;20409;-73
2023/09/01 11:45:15;;;;;;;3.07;2.20;;;21.20;99.90;;;;;;4973260;28;20460;-73
2023/09/01 11:47:41;;;;;;;4.50;2.10;;;21.20;99.90;;;;;;4974090;28;20443;-72
2023/09/01 11:50:12;;;;;;;1.93;1.70;;;21.30;99.90;;;;;;4973039;28;20259;-72
2023/09/01 11:52:51;;;;;;;3.90;2.00;;;21.30;99.90;;;;;;4971914;28;20264;-73
2023/09/01 11:55:34;;;;;;;2.30;1.87;;;21.80;99.90;;;;;;4962571;28;20515;-72
2023/09/01 11:58:00;;;;;;;2.63;2.07;;;21.70;99.90;;;;;;4971663;28;20421;-72
2023/09/01 12:00:38;;;;;;;2.43;2.20;;;21.60;99.90;;;;;;4966339;28;20447;-73
2023/09/01 12:03:05;;;;;;;2.43;2.10;;;22.30;99.90;;;;;;4967460;28;20186;-73
2023/09/01 12:05:32;;;;;;;1.93;1.70;;;22.10;99.90;;;;;;4979455;28;20444;-73
2023/09/01 12:07:59;;;;;;;2.97;1.90;;;21.60;99.90;;;;;;4974810;28;20417;-72
2023/09/01 12:10:25;;;;;;;3.77;2.13;;;21.90;99.90;;;;;;4973556;28;20409;-73
2023/09/01 12:13:03;;;;;;;10.33;2.40;;;21.80;99.90;;;;;;4973070;28;20432;-72
2023/09/01 12:15:28;;;;;;;5.50;2.73;;;21.70;99.90;;;;;;5000113;28;20279;-72
2023/09/01 12:17:54;;;;;;;4.07;2.17;;;21.60;99.90;;;;;;4962513;28;20518;-72
2023/09/01 12:20:19;;;;;;;3.23;1.83;;;22.20;99.90;;;;;;4953654;28;20177;-72
2023/09/01 12:22:45;;;;;;;2.43;1.77;;;22.10;99.90;;;;;;4965992;28;20192;-73
2023/09/01 12:25:11;;;;;;;3.27;1.80;;;22.10;99.90;;;;;;4977688;28;20194;-72
2023/09/01 12:27:36;;;;;;;3.80;2.03;;;22.30;99.90;;;;;;4984270;28;20179;-72
2023/09/01 12:30:03;;;;;;;3.50;2.40;;;22.60;99.90;;;;;;4978381;28;20756;-71
2023/09/01 12:32:29;;;;;;;2.07;1.70;;;22.60;99.90;;;;;;4970098;28;20172;-72
2023/09/01 12:34:55;;;;;;;4.03;2.73;;;22.60;99.90;;;;;;4970145;28;20442;-73
2023/09/01 12:37:20;;;;;;;2.70;2.10;;;22.10;99.90;;;;;;4971960;28;20173;-72
2023/09/01 12:39:46;;;;;;;2.70;2.03;;;22.40;99.90;;;;;;4969919;28;20623;-71
2023/09/01 12:42:11;;;;;;;1.87;1.77;;;22.20;99.90;;;;;;4972552;28;20222;-71
2023/09/01 12:44:37;;;;;;;2.40;1.90;;;22.60;99.90;;;;;;4972606;28;20195;-72
2023/09/01 12:47:03;;;;;;;2.33;2.13;;;22.60;99.90;;;;;;4964826;28;20630;-72
2023/09/01 12:49:29;;;;;;;2.47;2.27;;;22.50;99.90;;;;;;4970404;28;20201;-72